sensor_id;sensor_type;location;lat;lon;timestamp;temperature;humidity
54680;DHT22;40578;53.178;5.846;2023-06-14T00:00:16;16.70;99.90
54680;DHT22;40578;53.178;5.846;2023-06-14T00:02:42;16.70;99.90
54680;DHT22;40578;53.178;5.846;2023-06-14T00:05:08;16.60;99.90
54680;DHT22;40578;53.178;5.846;2023-06-14T00:07:39;16.60;99.90
54680;DHT22;40578;53.178;5.846;2023-06-14T00:10:08;16.60;99.90
54680;DHT22;40578;53.178;5.846;2023-06-14T00:12:34;16.50;99.90
54680;DHT22;40578;53.178;5.846;2023-06-14T00:15:00;16.50;99.90
54680;DHT22;40578;53.178;5.846;2023-06-14T00:17:28;16.50;99.90
54680;DHT22;40578;53.178;5.846;2023-06-14T00:19:58;16.70;99.90
54680;DHT22;40578;53.178;5.846;2023-06-14T00:22:25;16.50;99.90
54680;DHT22;40578;53.178;5.846;2023-06-14T00:24:53;16.40;99.90
54680;DHT22;40578;53.178;5.846;2023-06-14T00:27:19;16.40;99.90
54680;DHT22;40578;53.178;5.846;2023-06-14T00:29:45;16.80;99.90
54680;DHT22;40578;53.178;5.846;2023-06-14T00:32:11;16.30;99.90
54680;DHT22;40578;53.178;5.846;2023-06-14T00:34:36;16.30;99.90
54680;DHT22;40578;53.178;5.846;2023-06-14T00:37:02;17.70;99.90
54680;DHT22;40578;53.178;5.846;2023-06-14T00:39:28;16.30;99.90
54680;DHT22;40578;53.178;5.846;2023-06-14T00:41:53;16.20;99.90
54680;DHT22;40578;53.178;5.846;2023-06-14T00:44:19;16.20;99.90
54680;DHT22;40578;53.178;5.846;2023-06-14T00:46:47;16.10;99.90
54680;DHT22;40578;53.178;5.846;2023-06-14T00:49:17;16.10;99.90
54680;DHT22;40578;53.178;5.846;2023-06-14T00:51:43;16.00;99.90
54680;DHT22;40578;53.178;5.846;2023-06-14T00:54:08;16.00;99.90
54680;DHT22;40578;53.178;5.846;2023-06-14T00:56:38;15.90;99.90
54680;DHT22;40578;53.178;5.846;2023-06-14T00:59:04;16.10;99.90
54680;DHT22;40578;53.178;5.846;2023-06-14T01:01:31;15.90;99.90
54680;DHT22;40578;53.178;5.846;2023-06-14T01:03:59;15.80;99.90
54680;DHT22;40578;53.178;5.846;2023-06-14T01:12:10;15.70;99.90
54680;DHT22;40578;53.178;5.846;2023-06-14T01:14:38;15.70;99.90
54680;DHT22;40578;53.178;5.846;2023-06-14T01:17:05;15.60;99.90
54680;DHT22;40578;53.178;5.846;2023-06-14T01:19:33;15.60;99.90
54680;DHT22;40578;53.178;5.846;2023-06-14T01:22:01;15.60;99.90
54680;DHT22;40578;53.178;5.846;2023-06-14T01:24:27;15.50;99.90
54680;DHT22;40578;53.178;5.846;2023-06-14T01:26:57;15.50;99.90
54680;DHT22;40578;53.178;5.846;2023-06-14T01:29:24;15.50;99.90
54680;DHT22;40578;53.178;5.846;2023-06-14T01:31:50;15.50;99.90
54680;DHT22;40578;53.178;5.846;2023-06-14T01:34:16;15.50;99.90
54680;DHT22;40578;53.178;5.846;2023-06-14T01:36:44;15.40;99.90
54680;DHT22;40578;53.178;5.846;2023-06-14T01:39:14;15.50;99.90
54680;DHT22;40578;53.178;5.846;2023-06-14T01:41:40;15.50;99.90
54680;DHT22;40578;53.178;5.846;2023-06-14T01:44:06;15.50;99.90
54680;DHT22;40578;53.178;5.846;2023-06-14T01:46:33;15.50;99.90
54680;DHT22;40578;53.178;5.846;2023-06-14T01:48:59;15.40;99.90
54680;DHT22;40578;53.178;5.846;2023-06-14T01:51:25;15.40;99.90
54680;DHT22;40578;53.178;5.846;2023-06-14T01:53:51;15.30;99.90
54680;DHT22;40578;53.178;5.846;2023-06-14T01:56:16;15.30;99.90
54680;DHT22;40578;53.178;5.846;2023-06-14T01:58:43;15.30;99.90
54680;DHT22;40578;53.178;5.846;2023-06-14T02:01:08;15.30;99.90
54680;DHT22;40578;53.178;5.846;2023-06-14T02:03:34;15.20;99.90
54680;DHT22;40578;53.178;5.846;2023-06-14T02:06:00;15.30;99.90
54680;DHT22;40578;53.178;5.846;2023-06-14T02:08:26;15.30;99.90
54680;DHT22;40578;53.178;5.846;2023-06-14T02:10:52;15.10;99.90
54680;DHT22;40578;53.178;5.846;2023-06-14T02:13:17;15.10;99.90
54680;DHT22;40578;53.178;5.846;2023-06-14T02:15:43;15.10;99.90
54680;DHT22;40578;53.178;5.846;2023-06-14T02:18:09;15.00;99.90
54680;DHT22;40578;53.178;5.846;2023-06-14T02:20:35;15.10;99.90
54680;DHT22;40578;53.178;5.846;2023-06-14T02:23:01;15.00;99.90
54680;DHT22;40578;53.178;5.846;2023-06-14T02:25:27;15.10;99.90
54680;DHT22;40578;53.178;5.846;2023-06-14T02:27:54;15.00;99.90
54680;DHT22;40578;53.178;5.846;2023-06-14T02:30:20;14.90;99.90
54680;DHT22;40578;53.178;5.846;2023-06-14T02:32:46;14.90;99.90
54680;DHT22;40578;53.178;5.846;2023-06-14T02:35:14;14.80;99.90
54680;DHT22;40578;53.178;5.846;2023-06-14T02:37:40;14.80;99.90
54680;DHT22;40578;53.178;5.846;2023-06-14T02:40:06;14.80;99.90
54680;DHT22;40578;53.178;5.846;2023-06-14T02:42:33;14.80;99.90
54680;DHT22;40578;53.178;5.846;2023-06-14T02:44:59;14.70;99.90
54680;DHT22;40578;53.178;5.846;2023-06-14T02:47:24;14.80;99.90
54680;DHT22;40578;53.178;5.846;2023-06-14T02:49:51;14.70;99.90
54680;DHT22;40578;53.178;5.846;2023-06-14T02:52:16;14.70;99.90
54680;DHT22;40578;53.178;5.846;2023-06-14T02:54:42;14.70;99.90
54680;DHT22;40578;53.178;5.846;2023-06-14T02:57:08;14.70;99.90
54680;DHT22;40578;53.178;5.846;2023-06-14T02:59:34;14.60;99.90
54680;DHT22;40578;53.178;5.846;2023-06-14T03:02:00;14.80;99.90
54680;DHT22;40578;53.178;5.846;2023-06-14T03:04:26;14.50;99.90
54680;DHT22;40578;53.178;5.846;2023-06-14T03:06:52;14.50;99.90
54680;DHT22;40578;53.178;5.846;2023-06-14T03:09:19;14.90;99.90
54680;DHT22;40578;53.178;5.846;2023-06-14T03:11:45;14.50;99.90
54680;DHT22;40578;53.178;5.846;2023-06-14T03:14:11;14.50;99.90
54680;DHT22;40578;53.178;5.846;2023-06-14T03:16:37;14.50;99.90
54680;DHT22;40578;53.178;5.846;2023-06-14T03:19:04;14.50;99.90
54680;DHT22;40578;53.178;5.846;2023-06-14T03:21:30;14.50;99.90
54680;DHT22;40578;53.178;5.846;2023-06-14T03:23:56;14.50;99.90
54680;DHT22;40578;53.178;5.846;2023-06-14T03:26:21;14.40;99.90
54680;DHT22;40578;53.178;5.846;2023-06-14T03:28:48;14.40;99.90
54680;DHT22;40578;53.178;5.846;2023-06-14T03:31:16;14.40;99.90
54680;DHT22;40578;53.178;5.846;2023-06-14T03:33:42;14.40;99.90
54680;DHT22;40578;53.178;5.846;2023-06-14T03:36:08;14.40;99.90
54680;DHT22;40578;53.178;5.846;2023-06-14T03:38:34;14.50;99.90
54680;DHT22;40578;53.178;5.846;2023-06-14T03:41:00;14.60;99.90
54680;DHT22;40578;53.178;5.846;2023-06-14T03:43:27;14.40;99.90
54680;DHT22;40578;53.178;5.846;2023-06-14T03:45:52;14.40;99.90
54680;DHT22;40578;53.178;5.846;2023-06-14T03:48:18;15.70;99.90
54680;DHT22;40578;53.178;5.846;2023-06-14T03:50:44;14.30;99.90
54680;DHT22;40578;53.178;5.846;2023-06-14T03:53:10;14.30;99.90
54680;DHT22;40578;53.178;5.846;2023-06-14T03:55:36;14.30;99.90
54680;DHT22;40578;53.178;5.846;2023-06-14T03:58:03;14.30;99.90
54680;DHT22;40578;53.178;5.846;2023-06-14T04:00:29;14.30;99.90
54680;DHT22;40578;53.178;5.846;2023-06-14T04:02:55;14.30;99.90
54680;DHT22;40578;53.178;5.846;2023-06-14T04:05:21;14.70;99.90
54680;DHT22;40578;53.178;5.846;2023-06-14T04:07:46;14.20;99.90
54680;DHT22;40578;53.178;5.846;2023-06-14T04:10:15;14.20;99.90
54680;DHT22;40578;53.178;5.846;2023-06-14T04:12:41;14.30;99.90
54680;DHT22;40578;53.178;5.846;2023-06-14T04:15:07;14.30;99.90
54680;DHT22;40578;53.178;5.846;2023-06-14T04:17:34;14.40;99.90
54680;DHT22;40578;53.178;5.846;2023-06-14T04:20:00;14.50;99.90
54680;DHT22;40578;53.178;5.846;2023-06-14T04:22:27;14.90;99.90
54680;DHT22;40578;53.178;5.846;2023-06-14T04:24:57;15.60;99.90
54680;DHT22;40578;53.178;5.846;2023-06-14T04:27:23;15.40;99.90
54680;DHT22;40578;53.178;5.846;2023-06-14T04:29:52;15.50;99.90
54680;DHT22;40578;53.178;5.846;2023-06-14T04:32:28;15.40;99.90
54680;DHT22;40578;53.178;5.846;2023-06-14T04:35:06;15.30;99.90
54680;DHT22;40578;53.178;5.846;2023-06-14T04:37:32;15.20;99.90
54680;DHT22;40578;53.178;5.846;2023-06-14T04:39:58;15.20;99.90
54680;DHT22;40578;53.178;5.846;2023-06-14T04:42:24;15.80;99.90
54680;DHT22;40578;53.178;5.846;2023-06-14T04:44:51;15.70;99.90
54680;DHT22;40578;53.178;5.846;2023-06-14T04:47:20;15.80;99.90
54680;DHT22;40578;53.178;5.846;2023-06-14T04:49:46;16.10;99.90
54680;DHT22;40578;53.178;5.846;2023-06-14T04:52:12;16.50;99.90
54680;DHT22;40578;53.178;5.846;2023-06-14T04:54:39;16.90;99.90
54680;DHT22;40578;53.178;5.846;2023-06-14T04:57:08;17.40;99.90
54680;DHT22;40578;53.178;5.846;2023-06-14T04:59:34;18.00;99.90
54680;DHT22;40578;53.178;5.846;2023-06-14T05:02:01;18.30;99.90
54680;DHT22;40578;53.178;5.846;2023-06-14T05:04:27;18.60;99.90
54680;DHT22;40578;53.178;5.846;2023-06-14T05:06:54;18.80;99.90
54680;DHT22;40578;53.178;5.846;2023-06-14T05:09:22;19.00;99.90
54680;DHT22;40578;53.178;5.846;2023-06-14T05:11:48;19.50;99.90
54680;DHT22;40578;53.178;5.846;2023-06-14T05:14:15;19.50;99.90
54680;DHT22;40578;53.178;5.846;2023-06-14T05:16:42;19.70;99.90
54680;DHT22;40578;53.178;5.846;2023-06-14T05:19:08;19.80;99.90
54680;DHT22;40578;53.178;5.846;2023-06-14T05:21:34;20.00;99.90
54680;DHT22;40578;53.178;5.846;2023-06-14T05:24:00;20.20;99.90
54680;DHT22;40578;53.178;5.846;2023-06-14T05:26:27;20.30;99.90
54680;DHT22;40578;53.178;5.846;2023-06-14T05:28:58;20.30;99.90
54680;DHT22;40578;53.178;5.846;2023-06-14T05:31:26;20.30;99.90
54680;DHT22;40578;53.178;5.846;2023-06-14T05:33:52;20.30;99.90
54680;DHT22;40578;53.178;5.846;2023-06-14T05:36:19;20.40;99.90
54680;DHT22;40578;53.178;5.846;2023-06-14T05:38:46;20.60;99.90
54680;DHT22;40578;53.178;5.846;2023-06-14T05:41:12;20.40;99.90
54680;DHT22;40578;53.178;5.846;2023-06-14T05:43:38;19.70;99.90
54680;DHT22;40578;53.178;5.846;2023-06-14T05:46:04;19.10;99.90
54680;DHT22;40578;53.178;5.846;2023-06-14T05:48:30;18.70;99.90
54680;DHT22;40578;53.178;5.846;2023-06-14T05:50:56;18.30;99.90
54680;DHT22;40578;53.178;5.846;2023-06-14T05:53:22;18.10;99.90
54680;DHT22;40578;53.178;5.846;2023-06-14T05:55:50;18.20;99.90
54680;DHT22;40578;53.178;5.846;2023-06-14T05:58:17;18.50;99.90
54680;DHT22;40578;53.178;5.846;2023-06-14T06:00:42;18.30;99.90
54680;DHT22;40578;53.178;5.846;2023-06-14T06:03:08;18.30;99.90
54680;DHT22;40578;53.178;5.846;2023-06-14T06:05:34;18.10;99.90
54680;DHT22;40578;53.178;5.846;2023-06-14T06:08:00;18.10;99.90
54680;DHT22;40578;53.178;5.846;2023-06-14T06:10:26;18.10;99.90
54680;DHT22;40578;53.178;5.846;2023-06-14T06:12:51;18.10;99.90
54680;DHT22;40578;53.178;5.846;2023-06-14T06:15:17;18.10;99.90
54680;DHT22;40578;53.178;5.846;2023-06-14T06:17:44;18.40;99.90
54680;DHT22;40578;53.178;5.846;2023-06-14T06:20:10;19.30;99.90
54680;DHT22;40578;53.178;5.846;2023-06-14T06:22:37;20.00;99.90
54680;DHT22;40578;53.178;5.846;2023-06-14T06:25:03;19.90;99.90
54680;DHT22;40578;53.178;5.846;2023-06-14T06:27:29;19.50;99.90
54680;DHT22;40578;53.178;5.846;2023-06-14T06:29:55;19.20;99.90
54680;DHT22;40578;53.178;5.846;2023-06-14T06:32:21;19.10;99.90
54680;DHT22;40578;53.178;5.846;2023-06-14T06:34:46;19.00;99.90
54680;DHT22;40578;53.178;5.846;2023-06-14T06:37:12;18.90;99.90
54680;DHT22;40578;53.178;5.846;2023-06-14T06:39:38;18.90;99.90
54680;DHT22;40578;53.178;5.846;2023-06-14T06:42:04;18.90;99.90
54680;DHT22;40578;53.178;5.846;2023-06-14T06:44:30;18.90;99.90
54680;DHT22;40578;53.178;5.846;2023-06-14T06:46:57;18.90;99.90
54680;DHT22;40578;53.178;5.846;2023-06-14T06:49:23;19.00;99.90
54680;DHT22;40578;53.178;5.846;2023-06-14T06:52:02;19.00;99.90
54680;DHT22;40578;53.178;5.846;2023-06-14T06:54:28;19.00;99.90
54680;DHT22;40578;53.178;5.846;2023-06-14T06:56:54;19.10;99.90
54680;DHT22;40578;53.178;5.846;2023-06-14T06:59:20;19.20;99.90
54680;DHT22;40578;53.178;5.846;2023-06-14T07:01:46;19.30;99.90
54680;DHT22;40578;53.178;5.846;2023-06-14T07:04:12;19.30;99.90
54680;DHT22;40578;53.178;5.846;2023-06-14T07:06:38;19.30;99.90
54680;DHT22;40578;53.178;5.846;2023-06-14T07:09:03;19.40;99.90
54680;DHT22;40578;53.178;5.846;2023-06-14T07:11:32;19.50;99.90
54680;DHT22;40578;53.178;5.846;2023-06-14T07:13:57;19.50;99.90
54680;DHT22;40578;53.178;5.846;2023-06-14T07:16:23;19.50;99.90
54680;DHT22;40578;53.178;5.846;2023-06-14T07:18:49;19.50;99.90
54680;DHT22;40578;53.178;5.846;2023-06-14T07:21:14;19.60;99.90
54680;DHT22;40578;53.178;5.846;2023-06-14T07:23:40;19.70;99.90
54680;DHT22;40578;53.178;5.846;2023-06-14T07:26:06;19.70;99.90
54680;DHT22;40578;53.178;5.846;2023-06-14T07:28:32;19.80;99.90
54680;DHT22;40578;53.178;5.846;2023-06-14T07:30:57;19.80;99.90
54680;DHT22;40578;53.178;5.846;2023-06-14T07:33:23;19.80;99.90
54680;DHT22;40578;53.178;5.846;2023-06-14T07:35:48;19.90;99.90
54680;DHT22;40578;53.178;5.846;2023-06-14T07:38:14;20.00;99.90
54680;DHT22;40578;53.178;5.846;2023-06-14T07:40:40;20.00;99.90
54680;DHT22;40578;53.178;5.846;2023-06-14T07:43:06;20.00;99.90
54680;DHT22;40578;53.178;5.846;2023-06-14T07:45:31;20.20;99.90
54680;DHT22;40578;53.178;5.846;2023-06-14T07:47:57;20.10;99.90
54680;DHT22;40578;53.178;5.846;2023-06-14T07:50:23;20.10;99.90
54680;DHT22;40578;53.178;5.846;2023-06-14T07:52:49;20.30;99.90
54680;DHT22;40578;53.178;5.846;2023-06-14T07:55:14;20.20;99.90
54680;DHT22;40578;53.178;5.846;2023-06-14T07:57:40;20.30;99.90
54680;DHT22;40578;53.178;5.846;2023-06-14T08:00:06;21.10;99.90
54680;DHT22;40578;53.178;5.846;2023-06-14T08:02:32;20.30;99.90
54680;DHT22;40578;53.178;5.846;2023-06-14T08:04:58;20.40;99.90
54680;DHT22;40578;53.178;5.846;2023-06-14T08:07:24;20.50;99.90
54680;DHT22;40578;53.178;5.846;2023-06-14T08:09:50;20.50;99.90
54680;DHT22;40578;53.178;5.846;2023-06-14T08:12:15;20.50;99.90
54680;DHT22;40578;53.178;5.846;2023-06-14T08:14:42;20.70;99.90
54680;DHT22;40578;53.178;5.846;2023-06-14T08:17:08;20.90;99.90
54680;DHT22;40578;53.178;5.846;2023-06-14T08:19:34;20.80;99.90
54680;DHT22;40578;53.178;5.846;2023-06-14T08:22:00;20.80;99.90
54680;DHT22;40578;53.178;5.846;2023-06-14T08:24:25;21.00;99.90
54680;DHT22;40578;53.178;5.846;2023-06-14T08:26:54;21.10;99.90
54680;DHT22;40578;53.178;5.846;2023-06-14T08:29:19;21.10;99.90
54680;DHT22;40578;53.178;5.846;2023-06-14T08:31:45;21.10;99.90
54680;DHT22;40578;53.178;5.846;2023-06-14T08:34:11;21.10;99.90
54680;DHT22;40578;53.178;5.846;2023-06-14T08:36:37;21.10;99.90
54680;DHT22;40578;53.178;5.846;2023-06-14T08:39:02;21.20;99.90
54680;DHT22;40578;53.178;5.846;2023-06-14T08:41:28;21.30;99.90
54680;DHT22;40578;53.178;5.846;2023-06-14T08:43:55;21.40;99.90
54680;DHT22;40578;53.178;5.846;2023-06-14T08:46:24;21.50;99.90
54680;DHT22;40578;53.178;5.846;2023-06-14T08:48:53;21.60;99.90
54680;DHT22;40578;53.178;5.846;2023-06-14T08:51:22;21.50;99.90
54680;DHT22;40578;53.178;5.846;2023-06-14T08:53:54;21.50;99.90
54680;DHT22;40578;53.178;5.846;2023-06-14T08:56:25;21.50;99.90
54680;DHT22;40578;53.178;5.846;2023-06-14T08:58:51;21.50;99.90
54680;DHT22;40578;53.178;5.846;2023-06-14T09:01:18;21.50;99.90
54680;DHT22;40578;53.178;5.846;2023-06-14T09:03:44;21.50;99.90
54680;DHT22;40578;53.178;5.846;2023-06-14T09:06:11;21.60;99.90
54680;DHT22;40578;53.178;5.846;2023-06-14T09:08:43;21.70;99.90
54680;DHT22;40578;53.178;5.846;2023-06-14T09:11:14;21.80;99.90
54680;DHT22;40578;53.178;5.846;2023-06-14T09:13:41;21.80;99.90
54680;DHT22;40578;53.178;5.846;2023-06-14T09:16:08;21.80;99.90
54680;DHT22;40578;53.178;5.846;2023-06-14T09:18:37;21.80;99.90
54680;DHT22;40578;53.178;5.846;2023-06-14T09:21:06;21.90;99.90
54680;DHT22;40578;53.178;5.846;2023-06-14T09:23:42;21.90;99.90
54680;DHT22;40578;53.178;5.846;2023-06-14T09:26:08;21.90;99.90
54680;DHT22;40578;53.178;5.846;2023-06-14T09:28:35;22.00;99.90
54680;DHT22;40578;53.178;5.846;2023-06-14T09:31:01;22.10;99.90
54680;DHT22;40578;53.178;5.846;2023-06-14T09:33:27;22.10;99.90
54680;DHT22;40578;53.178;5.846;2023-06-14T09:35:55;22.10;99.90
54680;DHT22;40578;53.178;5.846;2023-06-14T09:38:21;22.10;99.90
54680;DHT22;40578;53.178;5.846;2023-06-14T09:40:46;22.10;99.90
54680;DHT22;40578;53.178;5.846;2023-06-14T09:43:12;22.10;99.90
54680;DHT22;40578;53.178;5.846;2023-06-14T09:45:41;22.20;99.90
54680;DHT22;40578;53.178;5.846;2023-06-14T09:48:11;22.20;99.90
54680;DHT22;40578;53.178;5.846;2023-06-14T09:50:37;22.40;99.90
54680;DHT22;40578;53.178;5.846;2023-06-14T09:53:07;22.40;99.90
54680;DHT22;40578;53.178;5.846;2023-06-14T09:55:37;22.50;99.90
54680;DHT22;40578;53.178;5.846;2023-06-14T09:58:05;22.50;99.90
54680;DHT22;40578;53.178;5.846;2023-06-14T10:00:32;22.50;99.90
54680;DHT22;40578;53.178;5.846;2023-06-14T10:03:12;22.50;99.90
54680;DHT22;40578;53.178;5.846;2023-06-14T10:05:41;22.60;99.90
54680;DHT22;40578;53.178;5.846;2023-06-14T10:08:13;22.60;99.90
54680;DHT22;40578;53.178;5.846;2023-06-14T10:10:39;22.60;99.90
54680;DHT22;40578;53.178;5.846;2023-06-14T10:13:07;22.70;99.90
54680;DHT22;40578;53.178;5.846;2023-06-14T10:15:51;22.80;99.90
54680;DHT22;40578;53.178;5.846;2023-06-14T10:23:42;22.90;99.90
54680;DHT22;40578;53.178;5.846;2023-06-14T10:26:08;22.90;99.90
54680;DHT22;40578;53.178;5.846;2023-06-14T10:28:59;22.90;99.90
54680;DHT22;40578;53.178;5.846;2023-06-14T10:31:41;22.80;99.90
54680;DHT22;40578;53.178;5.846;2023-06-14T10:34:08;22.90;99.90
54680;DHT22;40578;53.178;5.846;2023-06-14T10:36:33;23.00;99.90
54680;DHT22;40578;53.178;5.846;2023-06-14T10:39:08;23.00;99.90
54680;DHT22;40578;53.178;5.846;2023-06-14T10:41:37;22.90;99.90
54680;DHT22;40578;53.178;5.846;2023-06-14T10:46:47;22.90;99.90
54680;DHT22;40578;53.178;5.846;2023-06-14T10:49:15;23.00;99.90
54680;DHT22;40578;53.178;5.846;2023-06-14T10:51:43;23.10;99.90
54680;DHT22;40578;53.178;5.846;2023-06-14T10:54:15;23.10;99.90
54680;DHT22;40578;53.178;5.846;2023-06-14T10:56:47;23.10;99.90
54680;DHT22;40578;53.178;5.846;2023-06-14T10:59:14;23.10;99.90
54680;DHT22;40578;53.178;5.846;2023-06-14T11:04:12;23.20;99.90
54680;DHT22;40578;53.178;5.846;2023-06-14T11:06:48;23.30;99.90
54680;DHT22;40578;53.178;5.846;2023-06-14T11:11:58;23.40;99.90
54680;DHT22;40578;53.178;5.846;2023-06-14T11:14:24;23.40;99.90
54680;DHT22;40578;53.178;5.846;2023-06-14T11:16:51;23.30;99.90
54680;DHT22;40578;53.178;5.846;2023-06-14T11:19:17;23.30;99.90
54680;DHT22;40578;53.178;5.846;2023-06-14T11:21:47;23.30;99.90
54680;DHT22;40578;53.178;5.846;2023-06-14T11:24:16;23.50;99.90
54680;DHT22;40578;53.178;5.846;2023-06-14T11:26:42;23.50;99.90
54680;DHT22;40578;53.178;5.846;2023-06-14T11:29:08;23.50;99.90
54680;DHT22;40578;53.178;5.846;2023-06-14T11:31:34;23.50;99.90
54680;DHT22;40578;53.178;5.846;2023-06-14T11:34:00;23.50;99.90
54680;DHT22;40578;53.178;5.846;2023-06-14T11:36:33;23.50;99.90
54680;DHT22;40578;53.178;5.846;2023-06-14T11:39:00;23.60;99.90
54680;DHT22;40578;53.178;5.846;2023-06-14T11:41:31;23.70;99.90
54680;DHT22;40578;53.178;5.846;2023-06-14T11:43:57;23.70;99.90
54680;DHT22;40578;53.178;5.846;2023-06-14T11:46:25;23.70;99.90
54680;DHT22;40578;53.178;5.846;2023-06-14T11:48:51;23.70;99.90
54680;DHT22;40578;53.178;5.846;2023-06-14T11:51:18;23.70;99.90
54680;DHT22;40578;53.178;5.846;2023-06-14T11:53:44;23.80;99.90
54680;DHT22;40578;53.178;5.846;2023-06-14T11:56:11;23.90;99.90
54680;DHT22;40578;53.178;5.846;2023-06-14T11:58:37;23.80;99.90
54680;DHT22;40578;53.178;5.846;2023-06-14T12:01:05;23.90;99.90
54680;DHT22;40578;53.178;5.846;2023-06-14T12:03:32;24.00;99.90
54680;DHT22;40578;53.178;5.846;2023-06-14T12:06:07;24.00;99.90
54680;DHT22;40578;53.178;5.846;2023-06-14T12:08:37;23.90;99.90
54680;DHT22;40578;53.178;5.846;2023-06-14T12:11:13;24.00;99.90
54680;DHT22;40578;53.178;5.846;2023-06-14T12:13:42;24.00;99.90
54680;DHT22;40578;53.178;5.846;2023-06-14T12:16:09;24.00;99.90
54680;DHT22;40578;53.178;5.846;2023-06-14T12:18:36;24.00;99.90
54680;DHT22;40578;53.178;5.846;2023-06-14T12:21:06;24.00;99.90
54680;DHT22;40578;53.178;5.846;2023-06-14T12:23:58;24.10;99.90
54680;DHT22;40578;53.178;5.846;2023-06-14T12:26:24;24.20;99.90
54680;DHT22;40578;53.178;5.846;2023-06-14T12:28:52;24.10;99.90
54680;DHT22;40578;53.178;5.846;2023-06-14T12:31:17;24.20;99.90
54680;DHT22;40578;53.178;5.846;2023-06-14T12:33:45;24.40;99.90
54680;DHT22;40578;53.178;5.846;2023-06-14T12:36:14;24.50;99.90
54680;DHT22;40578;53.178;5.846;2023-06-14T12:38:40;24.70;99.90
54680;DHT22;40578;53.178;5.846;2023-06-14T12:41:07;24.70;99.90
54680;DHT22;40578;53.178;5.846;2023-06-14T12:43:33;24.80;99.90
54680;DHT22;40578;53.178;5.846;2023-06-14T12:45:59;24.70;99.90
54680;DHT22;40578;53.178;5.846;2023-06-14T12:48:25;24.80;99.90
54680;DHT22;40578;53.178;5.846;2023-06-14T12:50:52;24.80;99.90
54680;DHT22;40578;53.178;5.846;2023-06-14T12:53:18;24.90;99.90
54680;DHT22;40578;53.178;5.846;2023-06-14T12:55:44;24.90;99.90
54680;DHT22;40578;53.178;5.846;2023-06-14T12:58:10;24.80;99.90
54680;DHT22;40578;53.178;5.846;2023-06-14T13:00:38;24.60;99.90
54680;DHT22;40578;53.178;5.846;2023-06-14T13:03:03;24.60;99.90
54680;DHT22;40578;53.178;5.846;2023-06-14T13:05:29;24.70;99.90
54680;DHT22;40578;53.178;5.846;2023-06-14T13:07:56;25.00;99.90
54680;DHT22;40578;53.178;5.846;2023-06-14T13:10:22;25.10;99.90
54680;DHT22;40578;53.178;5.846;2023-06-14T13:12:48;25.10;99.90
54680;DHT22;40578;53.178;5.846;2023-06-14T13:15:13;25.10;99.90
54680;DHT22;40578;53.178;5.846;2023-06-14T13:17:39;25.20;99.90
54680;DHT22;40578;53.178;5.846;2023-06-14T13:20:06;25.20;99.90
54680;DHT22;40578;53.178;5.846;2023-06-14T13:22:33;25.20;99.90
54680;DHT22;40578;53.178;5.846;2023-06-14T13:24:58;25.00;99.90
54680;DHT22;40578;53.178;5.846;2023-06-14T13:27:25;25.00;99.90
54680;DHT22;40578;53.178;5.846;2023-06-14T13:29:50;24.90;99.90
54680;DHT22;40578;53.178;5.846;2023-06-14T13:32:16;25.10;99.90
54680;DHT22;40578;53.178;5.846;2023-06-14T13:34:42;25.00;99.90
54680;DHT22;40578;53.178;5.846;2023-06-14T13:37:07;24.80;99.90
54680;DHT22;40578;53.178;5.846;2023-06-14T13:39:33;25.00;99.90
54680;DHT22;40578;53.178;5.846;2023-06-14T13:41:58;25.20;99.90
54680;DHT22;40578;53.178;5.846;2023-06-14T13:44:24;25.40;99.90
54680;DHT22;40578;53.178;5.846;2023-06-14T13:46:50;25.20;99.90
54680;DHT22;40578;53.178;5.846;2023-06-14T13:49:16;25.20;99.90
54680;DHT22;40578;53.178;5.846;2023-06-14T13:51:42;25.20;99.90
54680;DHT22;40578;53.178;5.846;2023-06-14T13:54:08;25.00;99.90
54680;DHT22;40578;53.178;5.846;2023-06-14T13:56:34;24.80;99.90
54680;DHT22;40578;53.178;5.846;2023-06-14T13:58:59;24.60;99.90
54680;DHT22;40578;53.178;5.846;2023-06-14T14:01:25;24.40;99.90
54680;DHT22;40578;53.178;5.846;2023-06-14T14:03:52;24.50;99.90
54680;DHT22;40578;53.178;5.846;2023-06-14T14:06:17;24.60;99.90
54680;DHT22;40578;53.178;5.846;2023-06-14T14:08:43;24.70;99.90
54680;DHT22;40578;53.178;5.846;2023-06-14T14:11:09;24.90;99.90
54680;DHT22;40578;53.178;5.846;2023-06-14T14:13:35;24.80;99.90
54680;DHT22;40578;53.178;5.846;2023-06-14T14:16:02;24.60;99.90
54680;DHT22;40578;53.178;5.846;2023-06-14T14:18:28;24.40;99.90
54680;DHT22;40578;53.178;5.846;2023-06-14T14:20:54;24.20;99.90
54680;DHT22;40578;53.178;5.846;2023-06-14T14:23:21;24.10;99.90
54680;DHT22;40578;53.178;5.846;2023-06-14T14:25:47;24.10;99.90
54680;DHT22;40578;53.178;5.846;2023-06-14T14:28:13;24.10;99.90
54680;DHT22;40578;53.178;5.846;2023-06-14T14:30:41;24.10;99.90
54680;DHT22;40578;53.178;5.846;2023-06-14T14:33:07;24.30;99.90
54680;DHT22;40578;53.178;5.846;2023-06-14T14:35:36;24.40;99.90
54680;DHT22;40578;53.178;5.846;2023-06-14T14:38:01;24.40;99.90
54680;DHT22;40578;53.178;5.846;2023-06-14T14:40:28;24.20;99.90
54680;DHT22;40578;53.178;5.846;2023-06-14T14:42:54;24.00;99.90
54680;DHT22;40578;53.178;5.846;2023-06-14T14:45:21;24.20;99.90
54680;DHT22;40578;53.178;5.846;2023-06-14T14:47:46;24.40;99.90
54680;DHT22;40578;53.178;5.846;2023-06-14T14:50:12;24.40;99.90
54680;DHT22;40578;53.178;5.846;2023-06-14T14:52:37;24.50;99.90
54680;DHT22;40578;53.178;5.846;2023-06-14T14:55:04;24.60;99.90
54680;DHT22;40578;53.178;5.846;2023-06-14T14:57:29;24.40;99.90
54680;DHT22;40578;53.178;5.846;2023-06-14T14:59:56;24.20;99.90
54680;DHT22;40578;53.178;5.846;2023-06-14T15:02:22;24.20;99.90
54680;DHT22;40578;53.178;5.846;2023-06-14T15:04:49;24.20;99.90
54680;DHT22;40578;53.178;5.846;2023-06-14T15:07:15;24.30;99.90
54680;DHT22;40578;53.178;5.846;2023-06-14T15:09:40;24.40;99.90
54680;DHT22;40578;53.178;5.846;2023-06-14T15:12:07;24.40;99.90
54680;DHT22;40578;53.178;5.846;2023-06-14T15:14:33;24.40;99.90
54680;DHT22;40578;53.178;5.846;2023-06-14T15:17:00;24.50;99.90
54680;DHT22;40578;53.178;5.846;2023-06-14T15:19:27;24.40;99.90
54680;DHT22;40578;53.178;5.846;2023-06-14T15:21:52;24.40;99.90
54680;DHT22;40578;53.178;5.846;2023-06-14T15:24:19;24.30;99.90
54680;DHT22;40578;53.178;5.846;2023-06-14T15:26:45;24.20;99.90
54680;DHT22;40578;53.178;5.846;2023-06-14T15:29:12;24.30;99.90
54680;DHT22;40578;53.178;5.846;2023-06-14T15:31:37;24.30;99.90
54680;DHT22;40578;53.178;5.846;2023-06-14T15:34:03;24.30;99.90
54680;DHT22;40578;53.178;5.846;2023-06-14T15:36:29;24.20;99.90
54680;DHT22;40578;53.178;5.846;2023-06-14T15:38:54;24.20;99.90
54680;DHT22;40578;53.178;5.846;2023-06-14T15:41:20;24.20;99.90
54680;DHT22;40578;53.178;5.846;2023-06-14T15:43:46;24.20;99.90
54680;DHT22;40578;53.178;5.846;2023-06-14T15:46:11;24.20;99.90